Time;durP1;ratioP1;P1;durP2;ratioP2;P2;SDS_P1;SDS_P2;PMS_P1;PMS_P2;Temp;Humidity;BMP_temperature;BMP_pressure;BME280_temperature;BME280_humidity;BME280_pressure;Samples;Min_cycle;Max_cycle;Signal;HPM_P1;HPM_P2
2022/07/08 00:02:22;;;;;;;5.35;4.95;;;;;;;15.17;77.26;97435.28;1814638;79;25619;-75
2022/07/08 00:04:48;;;;;;;4.97;4.58;;;;;;;15.16;77.25;97434.98;1814530;79;28180;-77
2022/07/08 00:07:15;;;;;;;5.15;4.72;;;;;;;15.15;77.22;97431.44;1814373;79;25811;-75
2022/07/08 00:09:42;;;;;;;6.25;5.10;;;;;;;15.14;77.24;97429.25;1814570;79;26394;-75
2022/07/08 00:12:09;;;;;;;5.75;5.12;;;;;;;15.13;77.23;97429.48;1814500;79;25988;-75
2022/07/08 00:14:35;;;;;;;5.47;4.72;;;;;;;15.12;77.22;97425.94;1814438;79;25740;-76
2022/07/08 00:17:04;;;;;;;5.33;4.90;;;;;;;15.08;77.20;97430.22;1813484;79;26046;-75
2022/07/08 00:19:31;;;;;;;5.40;4.90;;;;;;;15.09;77.23;97432.41;1814431;79;25700;-75
2022/07/08 00:21:58;;;;;;;6.42;4.53;;;;;;;15.08;77.29;97426.67;1814327;79;25811;-76
2022/07/08 00:24:25;;;;;;;5.42;4.60;;;;;;;15.06;77.26;97429.62;1814285;79;25434;-76
2022/07/08 00:26:51;;;;;;;6.65;4.87;;;;;;;15.05;77.28;97425.25;1814377;79;26671;-76
2022/07/08 00:29:18;;;;;;;7.35;4.83;;;;;;;15.04;77.33;97429.03;1814007;79;27397;-77
2022/07/08 00:31:45;;;;;;;5.67;4.60;;;;;;;15.00;77.35;97432.45;1814568;79;25692;-78
2022/07/08 00:34:14;;;;;;;5.30;4.90;;;;;;;15.00;77.37;97428.38;1814428;79;25730;-75
2022/07/08 00:36:46;;;;;;;4.60;4.20;;;;;;;14.98;77.40;97429.98;1814334;79;25791;-76
2022/07/08 00:39:13;;;;;;;5.80;4.12;;;;;;;14.98;77.42;97437.30;1814375;79;25770;-75
2022/07/08 00:41:41;;;;;;;5.00;4.12;;;;;;;14.96;77.42;97435.38;1814514;79;27433;-76
2022/07/08 00:44:10;;;;;;;9.10;4.40;;;;;;;14.96;77.43;97436.73;1814352;79;25909;-77
2022/07/08 00:46:37;;;;;;;4.70;4.15;;;;;;;14.95;77.42;97435.08;1814607;79;25743;-76
2022/07/08 00:49:03;;;;;;;6.08;4.10;;;;;;;14.94;77.41;97429.35;1814785;79;26138;-76
2022/07/08 00:51:31;;;;;;;5.80;3.75;;;;;;;14.93;77.39;97437.20;1814805;79;25761;-76
2022/07/08 00:53:58;;;;;;;7.53;4.28;;;;;;;14.93;77.42;97435.84;1814555;79;27355;-76
2022/07/08 00:56:27;;;;;;;4.37;3.90;;;;;;;14.91;77.44;97432.53;1814475;79;25837;-76
2022/07/08 00:58:55;;;;;;;4.20;3.80;;;;;;;14.89;77.43;97427.87;1814235;79;25737;-75
2022/07/08 01:01:22;;;;;;;6.90;3.90;;;;;;;14.88;77.44;97423.49;1814482;79;25747;-76
2022/07/08 01:03:48;;;;;;;7.10;4.12;;;;;;;14.87;77.46;97428.63;1814551;79;25955;-75
2022/07/08 01:06:15;;;;;;;7.40;4.25;;;;;;;14.86;77.48;97428.33;1814624;79;27339;-76
2022/07/08 01:08:43;;;;;;;6.65;4.70;;;;;;;14.84;77.53;97431.31;1814515;79;25843;-75
2022/07/08 01:11:11;;;;;;;5.30;4.62;;;;;;;14.83;77.57;97439.70;1814606;79;25241;-76
2022/07/08 01:13:39;;;;;;;6.58;4.20;;;;;;;14.76;77.62;97433.84;1814491;79;25684;-76
2022/07/08 01:16:07;;;;;;;5.78;3.60;;;;;;;14.69;77.68;97437.22;1814549;79;25688;-77
2022/07/08 01:18:34;;;;;;;5.05;4.15;;;;;;;14.67;77.87;97433.91;1814538;79;28220;-74
2022/07/08 01:21:01;;;;;;;6.40;4.50;;;;;;;14.68;77.93;97434.21;1814138;79;25724;-78
2022/07/08 01:23:27;;;;;;;4.97;4.28;;;;;;;14.70;77.93;97429.91;1814649;79;25732;-76
2022/07/08 01:25:55;;;;;;;8.73;4.40;;;;;;;14.69;77.90;97429.61;1814500;79;25691;-74
2022/07/08 01:28:22;;;;;;;6.30;4.55;;;;;;;14.67;77.97;97429.84;1813750;78;26110;-76
2022/07/08 01:30:49;;;;;;;5.78;4.25;;;;;;;14.68;78.01;97430.14;1812801;79;27407;-75
2022/07/08 01:33:16;;;;;;;4.40;3.80;;;;;;;14.69;78.03;97433.15;1812853;79;25686;-76
2022/07/08 01:35:43;;;;;;;5.47;4.65;;;;;;;14.69;78.02;97429.61;1812738;79;25272;-76
2022/07/08 01:38:09;;;;;;;6.28;4.47;;;;;;;14.68;78.06;97435.56;1812666;79;25691;-76
2022/07/08 01:40:36;;;;;;;4.72;4.33;;;;;;;14.69;78.10;97437.76;1812845;79;25637;-75
2022/07/08 01:43:06;;;;;;;6.22;4.75;;;;;;;14.70;78.11;97435.34;1812912;79;27599;-77
2022/07/08 01:45:32;;;;;;;4.53;4.12;;;;;;;14.70;78.15;97438.88;1812648;79;25692;-76
2022/07/08 01:47:59;;;;;;;6.70;4.67;;;;;;;14.71;78.18;97439.70;1812518;79;25660;-76
2022/07/08 01:50:25;;;;;;;5.25;4.85;;;;;;;14.71;78.20;97435.10;1812902;79;25739;-76
2022/07/08 01:52:52;;;;;;;6.08;4.53;;;;;;;14.73;78.23;97440.30;1812955;79;25885;-76
2022/07/08 01:55:18;;;;;;;5.28;4.75;;;;;;;14.74;78.24;97440.57;1812878;79;27232;-78
2022/07/08 01:57:45;;;;;;;5.22;4.72;;;;;;;14.74;78.21;97440.04;1812923;79;25455;-76
2022/07/08 02:00:13;;;;;;;5.55;4.50;;;;;;;14.75;78.23;97443.05;1812811;79;25709;-76
2022/07/08 02:02:39;;;;;;;5.53;4.95;;;;;;;14.74;78.28;97446.83;1812819;79;25707;-76
2022/07/08 02:05:08;;;;;;;6.40;5.42;;;;;;;14.72;78.37;97450.34;1812901;79;25727;-77
2022/07/08 02:07:35;;;;;;;5.67;4.92;;;;;;;14.71;78.37;97441.89;1812693;79;28088;-76
2022/07/08 02:10:02;;;;;;;5.78;5.35;;;;;;;14.71;78.39;97447.33;1812672;79;25470;-75
2022/07/08 02:12:29;;;;;;;5.35;4.85;;;;;;;14.72;78.40;97450.34;1812773;79;25668;-76
2022/07/08 02:15:01;;;;;;;5.65;5.17;;;;;;;14.71;78.37;97452.77;1812939;79;25702;-76
2022/07/08 02:17:38;;;;;;;7.22;4.85;;;;;;;14.70;78.33;97451.64;1812878;79;25833;-76
2022/07/08 02:20:08;;;;;;;6.28;4.70;;;;;;;14.69;78.43;97458.13;1674365;85;27617;-77
2022/07/08 02:22:35;;;;;;;5.10;4.30;;;;;;;14.68;78.44;97456.48;1674539;85;25833;-76
2022/07/08 02:25:02;;;;;;;5.40;4.53;;;;;;;14.67;78.45;97458.36;1674637;85;25761;-75
2022/07/08 02:27:28;;;;;;;5.53;5.05;;;;;;;14.67;78.48;97461.08;1674632;85;25779;-76
2022/07/08 02:29:55;;;;;;;6.62;6.03;;;;;;;14.67;78.48;97462.44;1642385;85;25822;-76
2022/07/08 02:32:22;;;;;;;7.30;6.55;;;;;;;14.66;78.59;97467.58;1638861;87;28062;-77
2022/07/08 02:34:49;;;;;;;8.15;7.35;;;;;;;14.62;78.64;97465.55;1638608;87;25347;-75
2022/07/08 02:37:16;;;;;;;8.50;7.78;;;;;;;14.60;78.77;97467.17;1638646;87;25831;-77
2022/07/08 02:39:42;;;;;;;9.00;7.65;;;;;;;14.62;78.89;97468.27;1638782;87;25843;-75
2022/07/08 02:42:09;;;;;;;8.35;7.00;;;;;;;14.63;78.90;97469.92;1638711;87;25814;-76
2022/07/08 02:44:37;;;;;;;9.85;7.40;;;;;;;14.64;78.88;97468.34;1638703;86;27369;-77
2022/07/08 02:47:05;;;;;;;8.88;7.00;;;;;;;14.63;78.93;97476.19;1638582;87;25821;-78
2022/07/08 02:49:32;;;;;;;9.08;7.67;;;;;;;14.57;78.91;97478.50;1638664;87;25947;-76
2022/07/08 02:51:59;;;;;;;8.68;7.50;;;;;;;14.58;78.95;97478.80;1638644;86;25806;-78
2022/07/08 02:54:25;;;;;;;10.72;7.50;;;;;;;14.61;79.00;97488.38;1638766;87;25810;-76
2022/07/08 02:56:52;;;;;;;8.43;7.62;;;;;;;14.63;79.08;97490.30;1638717;87;26811;-76
2022/07/08 02:59:18;;;;;;;8.30;7.55;;;;;;;14.61;79.15;97491.89;1638691;87;25779;-76
2022/07/08 03:01:45;;;;;;;9.78;7.95;;;;;;;14.63;79.16;97497.92;1638652;87;25755;-75
2022/07/08 03:04:12;;;;;;;8.48;7.70;;;;;;;14.66;79.20;97502.89;1638822;87;25838;-77
2022/07/08 03:06:39;;;;;;;9.63;8.73;;;;;;;14.68;79.25;97508.92;1638766;87;25784;-78
2022/07/08 03:09:05;;;;;;;9.00;7.70;;;;;;;14.70;79.25;97506.80;1638807;87;28053;-75
2022/07/08 03:11:32;;;;;;;9.90;8.45;;;;;;;14.71;79.35;97507.11;1638604;86;25843;-76
2022/07/08 03:13:59;;;;;;;10.15;8.53;;;;;;;14.67;79.29;97505.91;1638762;86;25792;-75
2022/07/08 03:16:25;;;;;;;9.50;8.50;;;;;;;14.65;79.41;97506.67;1682186;81;25790;-76
2022/07/08 03:18:52;;;;;;;9.60;8.58;;;;;;;14.66;79.53;97512.41;1765172;81;25769;-78
2022/07/08 03:21:18;;;;;;;12.70;10.05;;;;;;;14.65;79.51;97512.10;1770699;81;28021;-77
2022/07/08 03:23:46;;;;;;;12.13;10.40;;;;;;;14.67;79.48;97513.23;1764694;81;43117;-76
2022/07/08 03:26:13;;;;;;;10.93;9.83;;;;;;;14.68;79.51;97519.80;1770551;81;26376;-74
2022/07/08 03:28:40;;;;;;;10.60;9.60;;;;;;;14.70;79.46;97521.75;1770260;80;25678;-76
2022/07/08 03:31:06;;;;;;;11.57;10.30;;;;;;;14.75;79.48;97523.21;1770293;80;25467;-77
2022/07/08 03:33:33;;;;;;;11.73;10.58;;;;;;;14.78;79.42;97532.79;1770502;81;26957;-76
2022/07/08 03:36:00;;;;;;;12.82;10.85;;;;;;;14.84;79.47;97535.11;1765060;81;25725;-75
2022/07/08 03:38:26;;;;;;;13.38;10.82;;;;;;;14.88;79.45;97537.64;1770419;81;25765;-75
2022/07/08 03:43:38;;;;;;;11.00;9.95;;;;;;;14.91;79.22;97543.97;1770234;81;26314;-75
2022/07/08 03:46:05;;;;;;;11.15;10.15;;;;;;;14.96;79.17;97554.45;1770644;80;27376;-75
2022/07/08 03:48:31;;;;;;;12.70;11.40;;;;;;;14.97;79.11;97551.20;1765060;79;25752;-78
2022/07/08 03:50:58;;;;;;;13.03;11.00;;;;;;;14.99;79.17;97553.95;1770550;81;25745;-74
2022/07/08 03:53:25;;;;;;;10.90;9.80;;;;;;;14.99;79.08;97558.55;1770448;81;26348;-77
2022/07/08 03:55:51;;;;;;;10.70;9.70;;;;;;;14.99;79.03;97558.55;1770226;81;25627;-75
2022/07/08 03:58:18;;;;;;;10.15;9.30;;;;;;;14.99;79.03;97561.28;1739870;81;27444;-75
2022/07/08 04:00:45;;;;;;;10.18;9.38;;;;;;;15.00;79.08;97564.30;1770422;81;25251;-75
2022/07/08 04:03:12;;;;;;;9.90;8.95;;;;;;;14.98;79.04;97560.98;1770732;81;25780;-76
2022/07/08 04:05:39;;;;;;;11.08;10.00;;;;;;;14.99;79.15;97558.55;1770430;81;26333;-76
2022/07/08 04:08:06;;;;;;;10.05;9.00;;;;;;;14.99;79.18;97564.83;1765078;79;25673;-76
2022/07/08 04:10:33;;;;;;;9.45;8.55;;;;;;;14.99;79.18;97569.43;1770473;81;27446;-75
2022/07/08 04:13:00;;;;;;;10.43;9.48;;;;;;;14.96;79.11;97567.20;1770431;80;25706;-77
2022/07/08 04:15:26;;;;;;;13.13;10.00;;;;;;;14.96;79.24;97565.31;1770181;81;25707;-76
2022/07/08 04:17:53;;;;;;;9.78;8.98;;;;;;;15.01;79.10;97572.22;1765120;79;25727;-76
2022/07/08 04:20:20;;;;;;;11.38;9.15;;;;;;;15.04;79.05;97568.20;1770479;81;25758;-76
2022/07/08 04:22:46;;;;;;;10.13;9.13;;;;;;;15.08;79.01;97570.76;1770380;81;26926;-76
2022/07/08 04:25:13;;;;;;;9.95;8.90;;;;;;;15.09;79.07;97575.94;1770445;81;26071;-76
2022/07/08 04:27:39;;;;;;;9.40;8.50;;;;;;;15.11;79.12;97574.34;1770550;81;25753;-76
2022/07/08 04:30:07;;;;;;;13.03;9.03;;;;;;;15.12;79.07;97578.19;1770322;80;25637;-76
2022/07/08 04:32:34;;;;;;;8.18;7.47;;;;;;;15.13;79.04;97577.66;1770420;81;25776;-76
2022/07/08 04:35:01;;;;;;;9.38;8.15;;;;;;;15.13;79.06;97579.84;1770657;81;28039;-75
2022/07/08 04:37:27;;;;;;;9.73;8.93;;;;;;;15.14;79.04;97585.58;1770522;81;25742;-76
2022/07/08 04:39:54;;;;;;;10.28;9.25;;;;;;;15.15;79.09;97582.34;1770287;81;25710;-75
2022/07/08 04:42:21;;;;;;;9.98;9.08;;;;;;;15.13;79.21;97587.17;1770357;80;26273;-76
2022/07/08 04:44:48;;;;;;;12.85;9.83;;;;;;;15.12;79.25;97595.03;1770665;81;25758;-76
2022/07/08 04:47:15;;;;;;;11.03;10.03;;;;;;;15.14;79.29;97590.19;1770682;80;28199;-76
2022/07/08 04:49:42;;;;;;;10.68;9.58;;;;;;;15.17;79.36;97592.98;1765031;79;25451;-76
2022/07/08 04:52:09;;;;;;;10.00;8.90;;;;;;;15.22;79.39;97595.80;1770850;81;25769;-75
2022/07/08 04:54:39;;;;;;;12.18;9.60;;;;;;;15.27;79.32;97591.85;1770654;81;25991;-76
2022/07/08 04:57:06;;;;;;;11.83;10.00;;;;;;;15.33;79.25;97586.84;1770804;81;25714;-75
2022/07/08 04:59:34;;;;;;;10.53;9.45;;;;;;;15.38;79.15;97590.48;1770716;81;28271;-76
2022/07/08 05:02:01;;;;;;;12.25;9.95;;;;;;;15.40;79.02;97585.64;1770547;81;25752;-75
2022/07/08 05:04:28;;;;;;;10.93;9.83;;;;;;;15.37;78.92;97587.47;1770487;81;25782;-76
2022/07/08 05:06:54;;;;;;;10.85;9.25;;;;;;;15.38;79.00;97588.30;1770531;81;25721;-76
2022/07/08 05:09:21;;;;;;;10.30;7.75;;;;;;;15.40;78.97;97588.36;1770579;81;25713;-75
2022/07/08 05:11:47;;;;;;;8.35;7.50;;;;;;;15.45;79.03;97595.30;1770546;81;28027;-75
2022/07/08 05:14:14;;;;;;;8.95;7.37;;;;;;;15.44;78.84;97600.44;1770475;81;25749;-75
2022/07/08 05:16:43;;;;;;;8.25;7.03;;;;;;;15.44;78.85;97601.80;1770670;81;25714;-76
2022/07/08 05:19:10;;;;;;;7.85;7.05;;;;;;;15.49;78.93;97608.69;1770576;81;25752;-75
2022/07/08 05:21:37;;;;;;;9.03;6.95;;;;;;;15.53;78.89;97615.03;1770235;81;25720;-76
2022/07/08 05:24:06;;;;;;;7.67;7.08;;;;;;;15.56;78.88;97617.31;1770602;81;27635;-76
2022/07/08 05:26:33;;;;;;;9.05;6.62;;;;;;;15.60;78.86;97617.11;1702944;83;25992;-75
2022/07/08 05:29:00;;;;;;;7.47;6.83;;;;;;;15.63;78.85;97619.36;1702771;83;25767;-75
2022/07/08 05:31:27;;;;;;;9.25;7.42;;;;;;;15.66;78.87;97618.89;1702681;84;26381;-75
2022/07/08 05:33:55;;;;;;;9.68;7.35;;;;;;;15.70;78.96;97607.80;1702751;84;25796;-75
2022/07/08 05:36:21;;;;;;;7.72;6.92;;;;;;;15.76;79.08;97614.50;1702914;84;28212;-75
2022/07/08 05:38:48;;;;;;;8.68;7.67;;;;;;;15.85;79.00;97616.31;1702626;84;26003;-76
2022/07/08 05:41:14;;;;;;;9.60;6.55;;;;;;;15.92;78.83;97615.66;1702728;84;25772;-75
2022/07/08 05:43:41;;;;;;;9.13;6.50;;;;;;;15.99;78.80;97620.42;1702649;84;25796;-76
2022/07/08 05:46:07;;;;;;;7.28;6.58;;;;;;;16.07;78.58;97624.13;1702467;84;25487;-77
2022/07/08 05:48:34;;;;;;;13.68;8.23;;;;;;;16.14;78.36;97624.83;1702672;84;27369;-76
2022/07/08 05:51:01;;;;;;;8.75;7.75;;;;;;;16.18;78.27;97624.63;1702659;84;25740;-76
2022/07/08 05:53:27;;;;;;;8.35;7.45;;;;;;;16.18;78.10;97619.17;1702715;84;25840;-76
2022/07/08 05:55:54;;;;;;;8.00;7.15;;;;;;;16.26;78.14;97634.33;1702858;84;25614;-77
2022/07/08 05:58:20;;;;;;;7.92;7.22;;;;;;;16.31;77.96;97630.86;1702661;84;25792;-76
2022/07/08 06:00:47;;;;;;;10.18;7.78;;;;;;;16.30;77.56;97626.51;1702850;84;28246;-76
2022/07/08 06:03:14;;;;;;;14.10;8.40;;;;;;;16.32;77.81;97620.25;1702582;84;26475;-75
2022/07/08 06:05:40;;;;;;;9.98;8.80;;;;;;;16.41;77.95;97633.27;1702909;84;25764;-77
2022/07/08 06:08:07;;;;;;;10.03;7.87;;;;;;;16.49;77.76;97626.06;1702786;84;25688;-77
2022/07/08 06:10:34;;;;;;;8.33;7.53;;;;;;;16.54;77.82;97626.70;1702672;84;25906;-76
2022/07/08 06:13:01;;;;;;;10.78;8.10;;;;;;;16.57;77.90;97633.01;1702752;84;27420;-77
2022/07/08 06:15:27;;;;;;;10.45;9.00;;;;;;;16.63;77.87;97627.99;1702654;84;25809;-76
2022/07/08 06:17:54;;;;;;;11.53;8.58;;;;;;;16.69;77.59;97625.63;1702835;84;25843;-76
2022/07/08 06:20:21;;;;;;;8.60;7.87;;;;;;;16.76;77.33;97630.41;1702894;84;25538;-75
2022/07/08 06:22:48;;;;;;;8.68;7.78;;;;;;;16.85;77.04;97630.30;1717337;81;25702;-76
2022/07/08 06:25:14;;;;;;;12.23;8.03;;;;;;;16.92;76.72;97631.48;1765345;81;27368;-76
2022/07/08 06:27:41;;;;;;;10.08;7.62;;;;;;;16.97;76.81;97628.86;1764606;81;25768;-77
2022/07/08 06:30:08;;;;;;;9.25;7.85;;;;;;;17.03;77.00;97631.13;1767542;80;25745;-76
2022/07/08 06:32:35;;;;;;;9.00;7.37;;;;;;;17.05;76.66;97637.99;1770661;81;26259;-76
2022/07/08 06:35:01;;;;;;;8.13;7.08;;;;;;;17.12;76.70;97642.77;1770590;81;26418;-76
2022/07/08 06:37:28;;;;;;;8.48;6.90;;;;;;;17.20;76.12;97636.89;1770599;81;27980;-76
2022/07/08 06:39:54;;;;;;;10.53;6.97;;;;;;;17.29;75.68;97642.75;1770390;81;25790;-76
2022/07/08 06:42:21;;;;;;;7.15;6.45;;;;;;;17.36;75.62;97638.51;1770414;80;25699;-76
2022/07/08 06:44:47;;;;;;;7.15;6.45;;;;;;;17.43;75.08;97641.34;1770431;81;25569;-77
2022/07/08 06:47:14;;;;;;;7.17;6.42;;;;;;;17.47;74.76;97638.41;1770329;80;25663;-77
2022/07/08 06:49:41;;;;;;;8.40;7.05;;;;;;;17.57;74.49;97644.56;1770489;81;27375;-77
2022/07/08 06:52:07;;;;;;;7.85;5.75;;;;;;;17.66;74.20;97644.98;1770529;80;25710;-77
2022/07/08 06:54:37;;;;;;;9.90;6.87;;;;;;;17.74;73.96;97640.48;1770658;81;25955;-77
2022/07/08 06:57:10;;;;;;;9.30;7.08;;;;;;;17.84;74.10;97647.45;1770633;80;25723;-77
2022/07/08 06:59:38;;;;;;;8.18;7.08;;;;;;;17.89;73.70;97637.94;1702934;83;26877;-77
2022/07/08 07:02:05;;;;;;;8.55;6.42;;;;;;;17.91;73.58;97639.89;1702933;84;28305;-77
2022/07/08 07:04:32;;;;;;;9.43;6.67;;;;;;;17.94;73.49;97641.58;1703013;82;26017;-77
2022/07/08 07:06:58;;;;;;;15.20;6.33;;;;;;;17.94;73.59;97640.22;1733179;82;25753;-77
2022/07/08 07:09:25;;;;;;;7.72;6.08;;;;;;;17.99;73.49;97640.84;1733604;82;26302;-77
2022/07/08 07:11:52;;;;;;;10.88;6.08;;;;;;;18.03;72.94;97635.67;1733702;82;25313;-78
2022/07/08 07:14:19;;;;;;;9.55;6.33;;;;;;;18.05;72.70;97630.25;1733708;82;27559;-78
2022/07/08 07:16:45;;;;;;;7.87;5.67;;;;;;;18.00;72.48;97635.09;1733638;82;25733;-78
2022/07/08 07:19:12;;;;;;;12.82;6.37;;;;;;;17.98;72.51;97633.72;1733612;82;25809;-78
2022/07/08 07:21:38;;;;;;;7.40;5.33;;;;;;;18.04;72.49;97641.42;1733592;82;25864;-78
2022/07/08 07:24:06;;;;;;;8.28;5.55;;;;;;;18.09;72.29;97636.87;1733327;82;25943;-78
2022/07/08 07:26:33;;;;;;;10.72;6.20;;;;;;;18.17;71.92;97638.31;1733268;82;27347;-78
2022/07/08 07:28:59;;;;;;;9.90;6.22;;;;;;;18.17;71.85;97644.61;1733348;82;25782;-78
2022/07/08 07:31:26;;;;;;;11.97;6.53;;;;;;;18.17;71.94;97647.34;1732989;81;25886;-78
2022/07/08 07:33:53;;;;;;;7.72;6.40;;;;;;;18.15;71.83;97646.77;1733353;82;26447;-78
2022/07/08 07:36:19;;;;;;;9.35;5.37;;;;;;;18.18;71.50;97654.46;1733355;82;25579;-78
2022/07/08 07:38:46;;;;;;;8.08;6.03;;;;;;;18.06;70.97;97663.31;1733065;82;27589;-78
2022/07/08 07:41:12;;;;;;;8.83;6.22;;;;;;;17.99;70.97;97661.32;1733027;82;25740;-78
2022/07/08 07:43:39;;;;;;;9.35;5.97;;;;;;;17.90;70.75;97660.08;1733498;82;25778;-78
2022/07/08 07:46:06;;;;;;;7.67;6.40;;;;;;;17.86;70.60;97667.14;1733312;82;25754;-78
2022/07/08 07:48:32;;;;;;;9.48;5.75;;;;;;;17.82;71.21;97668.71;1733438;82;25563;-78
2022/07/08 07:50:59;;;;;;;10.18;6.00;;;;;;;17.76;71.09;97669.16;1733654;82;27364;-78
2022/07/08 07:53:26;;;;;;;8.03;5.55;;;;;;;17.81;70.94;97662.95;1733880;82;25732;-78
2022/07/08 07:55:53;;;;;;;8.93;6.37;;;;;;;17.89;71.14;97667.44;1753019;79;25809;-78
2022/07/08 07:58:20;;;;;;;11.63;5.92;;;;;;;18.05;71.17;97664.93;1802135;79;25702;-78
2022/07/08 08:00:46;;;;;;;7.92;5.42;;;;;;;18.19;71.21;97656.66;1798110;79;25772;-79
2022/07/08 08:03:13;;;;;;;10.15;5.28;;;;;;;18.32;70.94;97658.47;1797113;79;27576;-78
2022/07/08 08:05:39;;;;;;;9.15;5.58;;;;;;;18.39;70.68;97657.44;1796975;79;25759;-78
2022/07/08 08:08:06;;;;;;;7.47;4.95;;;;;;;18.45;70.68;97656.42;1796900;79;25677;-78
2022/07/08 08:10:33;;;;;;;8.05;4.97;;;;;;;18.49;70.83;97660.28;1796977;79;25712;-78
2022/07/08 08:12:59;;;;;;;8.95;4.92;;;;;;;18.51;70.97;97667.69;1796925;79;25751;-78
2022/07/08 08:15:29;;;;;;;6.12;4.90;;;;;;;18.52;70.57;97663.88;1796845;79;28164;-78
2022/07/08 08:17:55;;;;;;;6.50;4.75;;;;;;;18.57;70.79;97660.67;1796659;79;25720;-78
2022/07/08 08:20:24;;;;;;;9.50;5.08;;;;;;;18.66;70.35;97659.70;1796886;79;25803;-78
2022/07/08 08:22:52;;;;;;;6.03;4.60;;;;;;;18.71;70.35;97652.94;1797101;79;25788;-78
2022/07/08 08:25:20;;;;;;;8.68;5.20;;;;;;;18.76;70.05;97653.52;1799045;79;25728;-78
2022/07/08 08:27:47;;;;;;;7.70;4.78;;;;;;;18.83;69.81;97664.55;1802181;79;27954;-78
2022/07/08 08:30:16;;;;;;;7.50;4.53;;;;;;;19.02;69.46;97665.83;1800324;79;25726;-78
2022/07/08 08:32:42;;;;;;;9.88;5.20;;;;;;;19.21;69.05;97669.53;1762862;80;25874;-78
2022/07/08 08:35:10;;;;;;;8.10;4.58;;;;;;;19.26;69.04;97664.13;1789201;79;25766;-78
2022/07/08 08:37:36;;;;;;;5.50;4.70;;;;;;;19.25;69.20;97663.83;1757312;81;25631;-78
2022/07/08 08:40:10;;;;;;;5.17;4.05;;;;;;;19.31;68.35;97669.11;1789031;78;27412;-78
2022/07/08 08:42:37;;;;;;;7.47;4.22;;;;;;;19.59;68.42;97667.97;1785968;79;25761;-78
2022/07/08 08:45:05;;;;;;;8.63;4.22;;;;;;;20.06;68.15;97659.78;1787986;78;25754;-78
2022/07/08 08:47:33;;;;;;;8.00;4.10;;;;;;;20.20;67.76;97668.34;1787946;78;25740;-78
2022/07/08 08:52:50;;;;;;;8.88;4.25;;;;;;;20.91;66.32;97660.40;1786289;79;27413;-78
2022/07/08 08:55:29;;;;;;;7.62;4.05;;;;;;;20.99;65.59;97657.69;1782082;79;25783;-76
2022/07/08 08:58:00;;;;;;;7.60;4.03;;;;;;;21.27;65.66;97663.22;1753456;81;25805;-79
2022/07/08 09:00:28;;;;;;;10.23;3.62;;;;;;;21.65;65.64;97665.42;1763914;79;25879;-78
2022/07/08 09:02:56;;;;;;;8.00;4.00;;;;;;;22.14;65.44;97662.89;1766970;81;25843;-76
2022/07/08 09:05:25;;;;;;;6.53;3.60;;;;;;;22.28;64.44;97659.00;1766843;81;27566;-78
2022/07/08 09:07:52;;;;;;;5.08;3.65;;;;;;;22.67;64.02;97656.92;1766426;81;25724;-79
2022/07/08 09:10:20;;;;;;;6.28;3.55;;;;;;;22.88;63.50;97659.85;1766722;81;25820;-77
2022/07/08 09:13:05;;;;;;;7.87;3.17;;;;;;;23.00;62.72;97650.70;1766657;81;25520;-79
2022/07/08 09:15:44;;;;;;;4.30;2.72;;;;;;;23.06;62.63;97657.00;1766792;81;26057;-77
2022/07/08 09:18:17;;;;;;;6.08;3.15;;;;;;;23.30;62.38;97656.00;1764691;81;28279;-79
2022/07/08 09:20:56;;;;;;;6.22;2.83;;;;;;;23.25;61.46;97647.77;1704938;84;25874;-77
2022/07/08 09:25:57;;;;;;;3.72;2.95;;;;;;;23.88;60.65;97655.25;1632604;87;25795;-79
2022/07/08 09:28:43;;;;;;;6.78;3.65;;;;;;;23.94;60.04;97657.64;1592290;90;25879;-77
2022/07/08 09:31:12;;;;;;;5.20;2.95;;;;;;;23.79;59.56;97657.00;1631468;87;27621;-77
2022/07/08 09:33:40;;;;;;;4.20;2.95;;;;;;;23.55;59.18;97656.35;1631143;87;25832;-77
2022/07/08 09:36:10;;;;;;;7.25;3.20;;;;;;;23.31;58.65;97660.37;1647289;86;25883;-76
2022/07/08 09:38:38;;;;;;;5.28;3.25;;;;;;;22.82;58.26;97655.50;1649844;86;25857;-77
2022/07/08 09:41:09;;;;;;;6.55;3.42;;;;;;;22.31;58.60;97657.08;1649246;86;25628;-77
2022/07/08 09:43:49;;;;;;;6.92;2.85;;;;;;;21.86;59.20;97657.97;1649172;86;27602;-76
2022/07/08 09:46:17;;;;;;;4.87;3.30;;;;;;;21.49;59.82;97660.48;1648702;86;25371;-76
2022/07/08 09:48:44;;;;;;;10.10;3.62;;;;;;;21.37;60.20;97655.02;1649514;86;25868;-76
2022/07/08 09:51:15;;;;;;;6.55;3.47;;;;;;;21.16;60.35;97660.44;1648974;86;25872;-75
2022/07/08 09:53:43;;;;;;;7.00;3.47;;;;;;;21.08;60.62;97658.25;1648202;86;25345;-76
2022/07/08 09:56:10;;;;;;;6.42;3.30;;;;;;;21.13;60.42;97660.19;1647513;86;27399;-77
2022/07/08 09:58:37;;;;;;;6.37;3.20;;;;;;;21.16;60.13;97658.24;1640955;86;25607;-76
2022/07/08 10:01:04;;;;;;;3.50;3.10;;;;;;;21.19;60.14;97659.94;1645092;86;25958;-76
2022/07/08 10:03:31;;;;;;;7.92;3.30;;;;;;;21.16;60.77;97654.95;1648974;86;25984;-76
2022/07/08 10:05:58;;;;;;;6.40;2.87;;;;;;;21.05;60.99;97655.22;1645179;86;25787;-76
2022/07/08 10:08:25;;;;;;;6.78;3.00;;;;;;;20.95;61.02;97651.09;1645292;86;28250;-76
2022/07/08 10:10:53;;;;;;;9.18;3.60;;;;;;;20.86;61.29;97635.72;1648864;86;25830;-75
2022/07/08 10:13:21;;;;;;;4.85;3.00;;;;;;;20.86;61.29;97635.72;1648975;86;25832;-75
2022/07/08 10:15:49;;;;;;;3.92;2.98;;;;;;;21.13;61.29;97651.95;1645014;86;25896;-77
2022/07/08 10:18:24;;;;;;;11.28;3.05;;;;;;;21.45;61.93;97652.53;1664974;85;25711;-76
2022/07/08 10:20:55;;;;;;;4.12;2.65;;;;;;;21.99;61.43;97655.23;1672326;85;28365;-76
2022/07/08 10:23:38;;;;;;;3.08;2.58;;;;;;;22.37;60.26;97645.48;1755326;79;25781;-76
2022/07/08 10:26:07;;;;;;;3.98;2.10;;;;;;;22.83;59.44;97646.11;1745236;82;25770;-76
2022/07/08 10:28:40;;;;;;;4.58;2.20;;;;;;;23.22;58.46;97648.33;1747108;82;25759;-76
2022/07/08 10:31:24;;;;;;;2.12;1.87;;;;;;;23.52;57.77;97643.73;1753988;80;25774;-76
2022/07/08 10:36:28;;;;;;;3.90;2.40;;;;;;;24.26;56.76;97643.84;1644229;86;25817;-77
2022/07/08 10:38:56;;;;;;;7.08;2.80;;;;;;;24.50;56.17;97644.65;1648220;86;26917;-78
2022/07/08 10:41:26;;;;;;;10.63;4.50;;;;;;;24.59;55.54;97651.70;1648631;86;26076;-77
2022/07/08 10:46:42;;;;;;;2.50;2.30;;;;;;;24.57;54.50;97640.95;1472741;97;27452;-77
2022/07/08 10:49:12;;;;;;;5.15;2.83;;;;;;;24.50;54.02;97641.89;1467739;97;25927;-76
2022/07/08 10:51:45;;;;;;;6.30;2.62;;;;;;;24.37;53.91;97643.98;1474445;97;25846;-77
2022/07/08 10:54:25;;;;;;;8.38;3.00;;;;;;;24.22;53.41;97648.26;1474383;97;26389;-78
2022/07/08 10:57:01;;;;;;;6.00;3.30;;;;;;;23.92;53.78;97640.56;1471435;97;26099;-77
2022/07/08 10:59:38;;;;;;;2.70;2.50;;;;;;;23.59;53.66;97640.08;1472404;97;27874;-75
2022/07/08 11:02:17;;;;;;;5.08;3.02;;;;;;;23.25;54.15;97640.88;1472399;97;25824;-76
2022/07/08 11:04:48;;;;;;;7.37;2.90;;;;;;;22.99;54.60;97632.53;1472455;97;26929;-77
2022/07/08 11:07:26;;;;;;;7.30;2.87;;;;;;;22.77;54.70;97635.70;1476191;96;25857;-79
2022/07/08 11:10:11;;;;;;;5.60;3.60;;;;;;;22.64;54.81;97636.29;1483612;96;25959;-78
2022/07/08 11:12:47;;;;;;;5.03;3.05;;;;;;;22.52;54.92;97640.75;1460934;98;28324;-76
2022/07/08 11:15:19;;;;;;;8.78;3.47;;;;;;;22.42;55.26;97638.60;1483610;96;26212;-76
2022/07/08 11:17:46;;;;;;;;;;;;;;;22.44;55.18;97635.84;1485834;96;25873;-76
2022/07/08 11:20:15;;;;;;;5.08;2.90;;;;;;;22.45;55.32;97638.87;1483485;96;25826;-78
2022/07/08 11:22:44;;;;;;;5.62;2.60;;;;;;;22.30;55.46;97611.98;1486547;95;25875;-77
2022/07/08 11:25:14;;;;;;;6.00;3.00;;;;;;;22.47;54.76;97632.51;1559874;90;28106;-77
2022/07/08 11:27:42;;;;;;;5.00;2.10;;;;;;;22.68;54.86;97624.17;1538999;93;25840;-76
2022/07/08 11:30:13;;;;;;;4.42;2.47;;;;;;;23.10;54.46;97621.71;1546107;91;25998;-76
2022/07/08 11:32:41;;;;;;;5.87;2.20;;;;;;;23.45;53.55;97616.47;1484049;96;25461;-75
2022/07/08 11:35:09;;;;;;;5.25;2.37;;;;;;;23.83;53.11;97612.00;1504222;95;25782;-78
2022/07/08 11:37:44;;;;;;;5.78;2.83;;;;;;;24.14;52.85;97618.02;1520340;94;27414;-75
2022/07/08 11:40:12;;;;;;;6.83;2.47;;;;;;;24.23;52.07;97611.32;1534078;93;25884;-77
2022/07/08 11:42:41;;;;;;;3.52;2.50;;;;;;;24.29;51.82;97612.33;1520224;94;26042;-79
2022/07/08 11:45:12;;;;;;;8.08;3.30;;;;;;;24.23;51.65;97609.94;1534191;91;25879;-75
2022/07/08 11:47:40;;;;;;;5.08;2.47;;;;;;;24.14;51.36;97615.81;1567417;90;25825;-77
2022/07/08 11:50:10;;;;;;;2.83;2.50;;;;;;;24.06;51.28;97612.57;1585040;87;27572;-76